createdAt,value
2019-01-21T00:01:56.034Z,28.03
2019-01-21T00:04:27.567Z,19.50
2019-01-21T00:07:00.163Z,15.27
2019-01-21T00:09:31.779Z,24.47
2019-01-21T00:12:04.677Z,19.27
2019-01-21T00:14:36.136Z,18.40
2019-01-21T00:17:09.273Z,17.73
2019-01-21T00:19:41.978Z,25.67
2019-01-21T00:22:13.213Z,22.63
2019-01-21T00:24:46.149Z,23.63
2019-01-21T00:27:17.367Z,18.63
2019-01-21T00:29:49.498Z,22.27
2019-01-21T00:32:22.282Z,16.23
2019-01-21T00:34:54.617Z,18.90
2019-01-21T00:37:27.011Z,26.33
2019-01-21T00:39:58.244Z,17.33
2019-01-21T00:42:29.467Z,18.60
2019-01-21T00:45:02.798Z,17.77
2019-01-21T00:47:36.215Z,24.67
2019-01-21T00:50:09.102Z,18.73
2019-01-21T00:52:41.365Z,21.83
2019-01-21T00:55:15.467Z,17.97
2019-01-21T00:57:48.402Z,17.47
2019-01-21T01:00:23.162Z,21.70
2019-01-21T01:02:58.562Z,19.00
2019-01-21T01:05:31.370Z,21.20
2019-01-21T01:08:02.689Z,22.60
2019-01-21T01:10:34.303Z,21.73
2019-01-21T01:13:09.557Z,28.43
2019-01-21T01:15:41.279Z,35.77
2019-01-21T01:18:12.586Z,22.43
2019-01-21T01:20:43.798Z,25.57
2019-01-21T01:23:17.358Z,35.10
2019-01-21T01:25:51.240Z,24.07
2019-01-21T01:28:22.490Z,32.33
2019-01-21T01:30:56.397Z,28.87
2019-01-21T01:33:29.407Z,25.73
2019-01-21T01:36:03.866Z,33.90
2019-01-21T01:38:37.693Z,31.30
2019-01-21T01:41:11.446Z,32.37
2019-01-21T01:43:45.392Z,23.67
2019-01-21T01:46:19.481Z,23.90
2019-01-21T01:48:53.417Z,30.47
2019-01-21T01:51:24.737Z,31.47
2019-01-21T01:53:57.520Z,27.63
2019-01-21T01:56:31.236Z,32.57
2019-01-21T01:59:02.503Z,31.13
2019-01-21T02:01:34.392Z,31.80
2019-01-21T02:04:05.626Z,29.57
2019-01-21T02:06:37.844Z,23.30
2019-01-21T02:09:13.305Z,21.90
2019-01-21T02:11:44.717Z,20.20
2019-01-21T02:14:18.849Z,22.30
2019-01-21T02:16:52.624Z,23.87
2019-01-21T02:19:30.435Z,20.90
2019-01-21T02:22:01.683Z,22.97
2019-01-21T02:24:37.833Z,29.23
2019-01-21T02:27:20.729Z,26.00
2019-01-21T02:30:35.834Z,26.53
2019-01-21T02:33:47.218Z,21.13
2019-01-21T02:37:00.659Z,19.70
2019-01-21T02:39:50.917Z,21.30
2019-01-21T02:42:57.012Z,22.27
2019-01-21T02:46:07.625Z,20.20
2019-01-21T02:49:05.853Z,23.30
2019-01-21T02:52:18.380Z,16.07
2019-01-21T02:55:06.960Z,23.43
2019-01-21T02:58:12.171Z,18.60
2019-01-21T03:01:00.942Z,15.20
2019-01-21T03:04:24.420Z,22.40
2019-01-21T03:07:27.360Z,21.63
2019-01-21T03:10:23.047Z,16.00
2019-01-21T03:13:16.276Z,16.63
2019-01-21T03:16:16.435Z,15.03
2019-01-21T03:19:13.507Z,17.80
2019-01-21T03:22:38.642Z,17.90
2019-01-21T03:25:58.645Z,19.20
2019-01-21T03:29:12.972Z,24.47
2019-01-21T03:32:36.821Z,30.60
2019-01-21T03:35:38.362Z,28.30
2019-01-21T03:38:46.646Z,25.40
2019-01-21T03:42:02.238Z,21.93
2019-01-21T03:45:32.031Z,23.20
2019-01-21T03:48:28.782Z,37.83
2019-01-21T03:51:50.932Z,44.40
2019-01-21T03:54:29.936Z,38.83
2019-01-21T03:57:33.835Z,40.03
2019-01-21T04:00:43.232Z,25.27
2019-01-21T04:03:46.594Z,17.67
2019-01-21T04:06:27.382Z,20.20
2019-01-21T04:09:32.950Z,20.43
2019-01-21T04:12:34.383Z,18.07
2019-01-21T04:15:25.496Z,26.60
2019-01-21T04:18:24.843Z,28.90
2019-01-21T04:21:54.867Z,21.50
2019-01-21T04:24:46.469Z,17.47
2019-01-21T04:27:54.812Z,22.37
2019-01-21T04:31:03.269Z,23.13
2019-01-21T04:34:08.716Z,25.50
2019-01-21T04:37:13.216Z,22.60
2019-01-21T04:40:14.953Z,25.93
2019-01-21T04:43:25.329Z,22.40
2019-01-21T04:46:29.784Z,28.47
2019-01-21T04:49:39.091Z,28.50
2019-01-21T04:52:59.423Z,20.07
2019-01-21T04:56:06.214Z,20.10
2019-01-21T04:59:04.499Z,14.80
2019-01-21T05:02:20.431Z,18.03
2019-01-21T05:05:04.631Z,24.80
2019-01-21T05:08:23.214Z,25.20
2019-01-21T05:11:15.629Z,18.90
2019-01-21T05:14:23.459Z,20.00
2019-01-21T05:17:32.440Z,21.27
2019-01-21T05:20:47.885Z,26.90
2019-01-21T05:24:12.215Z,25.93
2019-01-21T05:27:16.018Z,23.47
2019-01-21T05:30:27.394Z,18.93
2019-01-21T05:33:52.739Z,21.80
2019-01-21T05:37:02.958Z,23.30
2019-01-21T05:39:49.071Z,26.80
2019-01-21T05:42:51.138Z,25.60
2019-01-21T05:45:58.468Z,27.93
2019-01-21T05:49:16.461Z,21.40
2019-01-21T05:52:50.956Z,26.10
2019-01-21T05:55:59.607Z,28.17
2019-01-21T05:59:20.741Z,22.97
2019-01-21T06:02:21.476Z,29.37
2019-01-21T06:05:28.585Z,34.40
2019-01-21T06:08:40.003Z,28.40
2019-01-21T06:11:38.766Z,29.93
2019-01-21T06:15:04.625Z,29.37
2019-01-21T06:18:24.712Z,24.60
2019-01-21T06:21:42.036Z,24.63
2019-01-21T06:24:57.554Z,24.90
2019-01-21T06:28:04.274Z,20.77
2019-01-21T06:31:21.172Z,23.03
2019-01-21T06:34:30.675Z,28.93
2019-01-21T06:37:18.927Z,32.10
2019-01-21T06:40:31.602Z,30.13
2019-01-21T06:43:42.781Z,19.40
2019-01-21T06:47:10.991Z,36.93
2019-01-21T06:50:13.018Z,40.50
2019-01-21T06:53:14.280Z,34.80
2019-01-21T06:56:14.139Z,47.27
2019-01-21T06:59:08.368Z,38.97
2019-01-21T07:02:19.742Z,35.60
2019-01-21T07:05:32.930Z,32.23
2019-01-21T07:08:44.028Z,23.87
2019-01-21T07:11:45.782Z,19.07
2019-01-21T07:14:58.330Z,26.90
2019-01-21T07:18:19.682Z,29.80
2019-01-21T07:21:25.937Z,49.20
2019-01-21T07:24:39.017Z,38.73
2019-01-21T07:27:49.811Z,25.27
2019-01-21T07:31:02.651Z,28.13
2019-01-21T07:34:05.810Z,29.87
2019-01-21T07:37:37.028Z,35.90
2019-01-21T07:40:56.375Z,34.10
2019-01-21T07:44:33.273Z,33.90
2019-01-21T07:47:58.094Z,30.53
2019-01-21T07:51:15.372Z,25.57
2019-01-21T07:54:19.516Z,24.57
2019-01-21T07:57:27.261Z,23.93
2019-01-21T08:00:35.119Z,22.50
2019-01-21T08:03:42.055Z,43.63
2019-01-21T08:06:26.498Z,37.20
2019-01-21T08:09:23.660Z,35.40
2019-01-21T08:12:39.626Z,35.20
2019-01-21T08:15:42.385Z,36.23
2019-01-21T08:19:11.403Z,31.03
2019-01-21T08:22:47.418Z,36.40
2019-01-21T08:26:00.182Z,52.50
2019-01-21T08:29:07.051Z,49.60
2019-01-21T08:32:26.406Z,37.37
2019-01-21T08:35:21.540Z,47.37
2019-01-21T08:38:26.674Z,34.60
2019-01-21T08:41:29.445Z,45.73
2019-01-21T08:44:43.648Z,52.80
2019-01-21T08:47:40.220Z,74.17
2019-01-21T08:50:49.156Z,44.63
2019-01-21T08:53:57.823Z,38.17
2019-01-21T08:57:20.267Z,62.90
2019-01-21T09:00:30.223Z,67.33
2019-01-21T09:03:35.864Z,113.27
2019-01-21T09:06:45.786Z,80.07
2019-01-21T09:09:56.258Z,48.77
2019-01-21T09:13:13.215Z,44.20
2019-01-21T09:16:12.165Z,57.40
2019-01-21T09:19:25.811Z,56.27
2019-01-21T09:22:38.813Z,125.43
2019-01-21T09:25:52.436Z,65.20
2019-01-21T09:28:37.857Z,68.17
2019-01-21T09:31:54.727Z,42.57
2019-01-21T09:35:05.535Z,49.87
2019-01-21T09:38:21.539Z,50.77
2019-01-21T09:41:25.422Z,40.73
2019-01-21T09:44:14.649Z,52.87
2019-01-21T09:46:45.873Z,53.10
2019-01-21T09:49:15.998Z,50.70
2019-01-21T09:52:11.910Z,43.23
2019-01-21T09:54:43.762Z,34.97
2019-01-21T09:57:22.638Z,50.07
2019-01-21T09:59:57.627Z,37.47
2019-01-21T10:02:43.993Z,30.30
2019-01-21T10:05:18.950Z,32.70
2019-01-21T10:08:39.281Z,31.80
2019-01-21T10:11:29.575Z,30.93
2019-01-21T10:14:39.637Z,29.47
2019-01-21T10:17:49.467Z,27.43
2019-01-21T10:21:01.947Z,30.37
2019-01-21T10:24:13.831Z,28.47
2019-01-21T10:27:37.514Z,26.37
2019-01-21T10:30:57.018Z,31.13
2019-01-21T10:33:58.475Z,23.10
2019-01-21T10:37:08.644Z,31.77
2019-01-21T10:40:22.330Z,28.93
2019-01-21T10:43:24.535Z,26.43
2019-01-21T10:46:08.794Z,24.47
2019-01-21T10:49:12.586Z,23.50
2019-01-21T10:52:20.526Z,24.60
2019-01-21T10:55:03.872Z,28.53
2019-01-21T10:57:47.588Z,29.80
2019-01-21T11:00:49.380Z,26.07
2019-01-21T11:04:04.827Z,29.00
2019-01-21T11:07:00.286Z,36.53
2019-01-21T11:10:00.286Z,30.03
2019-01-21T11:13:04.748Z,33.63
2019-01-21T11:15:51.117Z,29.13
2019-01-21T11:18:47.558Z,33.30
2019-01-21T11:21:44.692Z,38.40
2019-01-21T11:25:04.369Z,31.73
2019-01-21T11:27:54.479Z,32.63
2019-01-21T11:31:03.136Z,27.03
2019-01-21T11:33:49.174Z,40.83
2019-01-21T11:36:58.159Z,33.77
2019-01-21T11:40:08.796Z,31.13
2019-01-21T11:43:40.250Z,27.23
2019-01-21T11:46:23.610Z,31.80
2019-01-21T11:49:17.513Z,28.80
2019-01-21T11:52:10.068Z,24.93
2019-01-21T11:55:11.101Z,27.53
2019-01-21T11:58:15.216Z,27.10
2019-01-21T12:01:32.598Z,25.20
2019-01-21T12:04:15.768Z,29.83
2019-01-21T12:06:55.482Z,22.43
2019-01-21T12:10:03.967Z,28.47
2019-01-21T12:13:15.490Z,23.30
2019-01-21T12:16:21.132Z,37.63
2019-01-21T12:19:16.335Z,26.30
2019-01-21T12:22:36.882Z,29.00
2019-01-21T12:25:26.120Z,32.87
2019-01-21T12:28:38.986Z,34.10
2019-01-21T12:32:09.765Z,66.70
2019-01-21T12:35:05.616Z,52.30
2019-01-21T12:38:23.146Z,46.40
2019-01-21T12:41:44.239Z,50.23
2019-01-21T12:44:49.350Z,28.00
2019-01-21T12:47:40.416Z,37.03
2019-01-21T12:51:01.096Z,27.77
2019-01-21T12:54:15.430Z,24.37
2019-01-21T12:57:41.638Z,36.60
2019-01-21T13:00:43.148Z,25.23
2019-01-21T13:03:51.231Z,22.50
2019-01-21T13:06:53.185Z,18.83
2019-01-21T13:09:40.379Z,21.80
2019-01-21T13:12:42.323Z,21.13
2019-01-21T13:15:42.604Z,24.40
2019-01-21T13:19:04.847Z,19.37
2019-01-21T13:22:14.967Z,24.03
2019-01-21T13:25:14.255Z,19.70
2019-01-21T13:28:37.544Z,18.00
2019-01-21T13:31:27.770Z,24.03
2019-01-21T13:34:45.334Z,19.40
2019-01-21T13:37:43.364Z,36.33
2019-01-21T13:40:51.203Z,24.97
2019-01-21T13:43:50.829Z,37.40
2019-01-21T13:46:45.277Z,37.17
2019-01-21T13:49:28.001Z,35.33
2019-01-21T13:52:44.711Z,32.90
2019-01-21T13:55:26.552Z,29.10
2019-01-21T13:58:37.360Z,25.30
2019-01-21T14:01:41.649Z,23.60
2019-01-21T14:04:54.356Z,33.07
2019-01-21T14:08:20.604Z,35.83
2019-01-21T14:11:30.044Z,46.40
2019-01-21T14:14:35.315Z,31.73
2019-01-21T14:17:24.336Z,33.53
2019-01-21T14:20:44.714Z,34.77
2019-01-21T14:23:44.395Z,22.63
2019-01-21T14:26:36.715Z,21.60
2019-01-21T14:30:02.687Z,25.40
2019-01-21T14:33:13.039Z,23.97
2019-01-21T14:36:18.649Z,26.00
2019-01-21T14:39:22.692Z,32.03
2019-01-21T14:42:31.733Z,32.83
2019-01-21T14:45:28.289Z,29.73
2019-01-21T14:48:38.978Z,40.60
2019-01-21T14:52:17.340Z,36.23
2019-01-21T14:55:27.530Z,41.40
2019-01-21T14:58:30.953Z,41.00
2019-01-21T15:01:40.950Z,46.17
2019-01-21T15:04:59.163Z,38.43
2019-01-21T15:08:01.020Z,36.83
2019-01-21T15:11:28.252Z,58.40
2019-01-21T15:14:20.531Z,29.53
2019-01-21T15:17:21.776Z,38.83
2019-01-21T15:20:30.200Z,37.07
2019-01-21T15:23:37.624Z,33.70
2019-01-21T15:26:44.986Z,24.30
2019-01-21T15:29:45.171Z,36.60
2019-01-21T15:32:49.533Z,29.57
2019-01-21T15:36:13.648Z,31.03
2019-01-21T15:39:28.874Z,34.23
2019-01-21T15:42:41.559Z,32.50
2019-01-21T15:46:15.372Z,31.73
2019-01-21T15:49:13.429Z,31.23
2019-01-21T15:52:17.365Z,33.27
2019-01-21T15:55:27.041Z,31.37
2019-01-21T15:58:42.842Z,32.97
2019-01-21T16:01:52.257Z,46.07
2019-01-21T16:04:37.103Z,27.97
2019-01-21T16:07:32.511Z,33.67
2019-01-21T16:10:57.070Z,39.10
2019-01-21T16:13:43.237Z,42.63
2019-01-21T16:16:50.099Z,41.47
2019-01-21T16:19:36.412Z,22.07
2019-01-21T16:22:41.147Z,35.97
2019-01-21T16:25:44.042Z,48.47
2019-01-21T16:28:41.411Z,37.63
2019-01-21T16:32:11.344Z,48.00
2019-01-21T16:35:25.198Z,33.63
2019-01-21T16:38:39.081Z,47.73
2019-01-21T16:42:00.990Z,37.17
2019-01-21T16:44:32.470Z,26.73
2019-01-21T16:47:03.851Z,26.27
2019-01-21T16:49:38.677Z,39.60
2019-01-21T16:52:10.302Z,32.60
2019-01-21T16:54:43.358Z,31.53
2019-01-21T16:57:16.026Z,43.20
2019-01-21T16:59:47.285Z,39.43
2019-01-21T17:02:21.259Z,41.97
2019-01-21T17:04:54.558Z,30.37
2019-01-21T17:07:25.967Z,39.70
2019-01-21T17:10:00.685Z,44.03
2019-01-21T17:12:33.604Z,40.83
2019-01-21T17:15:08.764Z,39.07
2019-01-21T17:17:41.546Z,48.87
2019-01-21T17:20:19.090Z,49.70
2019-01-21T17:22:52.858Z,40.57
2019-01-21T17:25:25.492Z,37.83
2019-01-21T17:27:57.491Z,42.70
2019-01-21T17:30:30.309Z,35.60
2019-01-21T17:33:02.659Z,38.53
2019-01-21T17:35:36.750Z,40.53
2019-01-21T17:38:09.637Z,32.43
2019-01-21T17:40:41.829Z,35.80
2019-01-21T17:43:15.846Z,29.93
2019-01-21T17:45:49.243Z,38.90
2019-01-21T17:48:22.722Z,41.93
2019-01-21T17:50:56.755Z,44.67
2019-01-21T17:53:30.778Z,42.93
2019-01-21T17:56:03.838Z,69.27
2019-01-21T17:58:39.789Z,48.50
2019-01-21T18:01:12.806Z,60.30
2019-01-21T18:03:46.656Z,46.83
2019-01-21T18:06:17.890Z,58.37
2019-01-21T18:08:52.180Z,47.30
2019-01-21T18:11:27.525Z,41.30
2019-01-21T18:13:59.916Z,43.47
2019-01-21T18:16:31.157Z,48.33
2019-01-21T18:19:03.733Z,38.87
2019-01-21T18:21:40.228Z,38.97
2019-01-21T18:24:11.555Z,36.70
2019-01-21T18:26:43.877Z,33.77
2019-01-21T18:29:17.872Z,38.40
2019-01-21T18:31:54.193Z,43.80
2019-01-21T18:34:25.913Z,33.80
2019-01-21T18:37:01.641Z,44.27
2019-01-21T18:39:32.973Z,35.77
2019-01-21T18:42:07.256Z,42.47
2019-01-21T18:44:39.298Z,29.53
2019-01-21T18:47:13.100Z,41.97
2019-01-21T18:49:44.603Z,44.93
2019-01-21T18:52:18.016Z,43.47
2019-01-21T18:54:51.872Z,30.57
2019-01-21T18:57:23.219Z,35.00
2019-01-21T18:59:57.093Z,37.47
2019-01-21T19:02:31.746Z,31.10
2019-01-21T19:05:04.690Z,38.77
2019-01-21T19:07:36.113Z,38.97
2019-01-21T19:10:08.805Z,36.40
2019-01-21T19:12:41.280Z,48.73
2019-01-21T19:15:18.605Z,37.53
2019-01-21T19:17:52.205Z,36.10
2019-01-21T19:20:26.049Z,33.33
2019-01-21T19:22:57.381Z,28.50
2019-01-21T19:25:30.182Z,32.60
2019-01-21T19:28:02.552Z,28.13
2019-01-21T19:30:36.138Z,31.37
2019-01-21T19:33:07.753Z,33.83
2019-01-21T19:35:41.216Z,28.93
2019-01-21T19:38:13.040Z,35.17
2019-01-21T19:40:46.293Z,39.10
2019-01-21T19:43:20.500Z,28.60
2019-01-21T19:45:54.804Z,32.07
2019-01-21T19:48:28.216Z,33.27
2019-01-21T19:51:02.280Z,39.83
2019-01-21T19:53:39.056Z,29.07
2019-01-21T19:56:10.342Z,30.77
2019-01-21T19:58:45.796Z,28.27
2019-01-21T20:01:19.607Z,33.63
2019-01-21T20:03:53.343Z,36.70
2019-01-21T20:06:26.415Z,29.70
2019-01-21T20:09:00.149Z,29.37
2019-01-21T20:11:34.826Z,35.17
2019-01-21T20:14:04.420Z,27.27
2019-01-21T20:16:36.325Z,38.60
2019-01-21T20:19:10.389Z,33.53
2019-01-21T20:21:44.277Z,36.80
2019-01-21T20:24:18.314Z,31.97
2019-01-21T20:26:52.288Z,34.80
2019-01-21T20:29:28.106Z,33.87
2019-01-21T20:31:59.526Z,33.90
2019-01-21T20:34:31.516Z,35.13
2019-01-21T20:37:03.945Z,28.00
2019-01-21T20:39:35.642Z,26.83
2019-01-21T20:42:07.656Z,31.60
2019-01-21T20:44:40.578Z,31.73
2019-01-21T20:47:13.550Z,35.47
2019-01-21T20:49:45.933Z,34.93
2019-01-21T20:52:19.630Z,29.53
2019-01-21T20:54:53.701Z,31.23
2019-01-21T20:57:27.642Z,29.90
2019-01-21T21:00:03.123Z,30.07
2019-01-21T21:02:34.816Z,29.37
2019-01-21T21:05:07.036Z,35.10
2019-01-21T21:07:40.745Z,26.10
2019-01-21T21:10:16.419Z,33.23
2019-01-21T21:12:49.389Z,26.60
2019-01-21T21:15:26.788Z,32.70
2019-01-21T21:18:00.680Z,31.20
2019-01-21T21:20:34.516Z,30.00
2019-01-21T21:23:07.638Z,26.87
2019-01-21T21:25:39.722Z,30.50
2019-01-21T21:28:14.479Z,33.83
2019-01-21T21:30:46.787Z,30.00
2019-01-21T21:33:18.182Z,31.10
2019-01-21T21:35:51.745Z,35.10
2019-01-21T21:38:23.720Z,34.23
2019-01-21T21:40:56.689Z,38.40
2019-01-21T21:46:53.101Z,27.83
2019-01-21T21:49:24.739Z,23.67
2019-01-21T21:51:57.839Z,26.17
2019-01-21T21:54:31.962Z,28.83
2019-01-21T21:57:04.096Z,32.83
2019-01-21T21:59:36.657Z,30.60
2019-01-21T22:02:08.371Z,22.43
2019-01-21T22:04:41.775Z,32.07
2019-01-21T22:07:16.166Z,29.73
2019-01-21T22:09:48.990Z,32.03
2019-01-21T22:12:21.878Z,35.30
2019-01-21T22:14:54.873Z,24.60
2019-01-21T22:17:29.075Z,30.50
2019-01-21T22:20:01.906Z,28.60
2019-01-21T22:22:34.878Z,23.43
2019-01-21T22:25:08.319Z,25.53
2019-01-21T22:27:41.962Z,19.33
2019-01-21T22:30:18.521Z,29.17
2019-01-21T22:32:49.768Z,24.03
2019-01-21T22:35:21.011Z,26.27
2019-01-21T22:37:55.023Z,21.13
2019-01-21T22:40:29.046Z,24.80
2019-01-21T22:43:01.842Z,26.23
2019-01-21T22:45:34.216Z,22.20
2019-01-21T22:48:07.215Z,18.27
2019-01-21T22:50:40.208Z,16.67
2019-01-21T22:53:13.191Z,20.30
2019-01-21T22:55:47.162Z,19.93
2019-01-21T22:58:23.042Z,26.93
2019-01-21T23:01:11.443Z,26.37
2019-01-21T23:03:44.182Z,30.13
2019-01-21T23:06:18.226Z,26.53
2019-01-21T23:08:53.707Z,22.83
2019-01-21T23:11:26.033Z,22.40
2019-01-21T23:13:57.502Z,20.20
2019-01-21T23:16:32.057Z,22.30
2019-01-21T23:19:04.805Z,17.67
2019-01-21T23:21:36.014Z,18.00
2019-01-21T23:24:10.264Z,21.33
2019-01-21T23:26:44.094Z,21.83
2019-01-21T23:29:16.223Z,17.33
2019-01-21T23:31:49.228Z,27.10
2019-01-21T23:34:20.472Z,24.43
2019-01-21T23:36:55.952Z,16.70
2019-01-21T23:39:28.732Z,26.63
2019-01-21T23:42:03.804Z,19.17
2019-01-21T23:44:36.243Z,20.70
2019-01-21T23:47:09.680Z,20.07
2019-01-21T23:49:40.895Z,18.77
2019-01-21T23:52:14.561Z,23.23
2019-01-21T23:54:48.216Z,15.23
2019-01-21T23:57:22.388Z,16.23
2019-01-21T23:59:58.253Z,19.90
